createdAt,value
2022-10-23T00:02:35.824Z,16.65
2022-10-23T00:06:51.536Z,14.95
2022-10-23T00:11:08.749Z,13.75
2022-10-23T00:15:24.187Z,13.70
2022-10-23T00:19:38.099Z,15.85
2022-10-23T00:23:53.300Z,14.75
2022-10-23T00:28:07.219Z,19.00
2022-10-23T00:32:21.382Z,15.25
2022-10-23T00:36:35.751Z,13.95
2022-10-23T00:40:51.567Z,13.30
2022-10-23T00:45:20.543Z,16.25
2022-10-23T00:49:34.635Z,11.63
2022-10-23T00:54:01.287Z,9.50
2022-10-23T00:58:27.957Z,10.40
2022-10-23T01:02:42.030Z,10.02
2022-10-23T01:07:04.343Z,10.05
2022-10-23T01:11:23.301Z,14.47
2022-10-23T01:15:45.579Z,10.68
2022-10-23T01:20:16.613Z,12.07
2022-10-23T01:24:40.803Z,13.53
2022-10-23T01:29:02.569Z,12.85
2022-10-23T01:33:24.075Z,13.45
2022-10-23T01:37:43.227Z,10.90
2022-10-23T01:42:04.710Z,15.07
2022-10-23T01:46:20.830Z,12.77
2022-10-23T01:50:35.852Z,15.10
2022-10-23T01:54:52.669Z,12.77
2022-10-23T01:59:10.671Z,29.85
2022-10-23T02:03:30.828Z,13.85
2022-10-23T02:07:45.465Z,12.80
2022-10-23T02:12:03.980Z,14.00
2022-10-23T02:16:24.294Z,11.32
2022-10-23T02:25:08.495Z,13.07
2022-10-23T02:29:28.365Z,12.68
2022-10-23T02:33:46.510Z,11.68
2022-10-23T02:38:02.715Z,10.77
2022-10-23T02:42:23.543Z,14.52
2022-10-23T02:46:47.328Z,13.02
2022-10-23T02:51:07.254Z,11.83
2022-10-23T02:55:35.186Z,11.25
2022-10-23T02:59:57.040Z,10.30
2022-10-23T03:04:12.580Z,11.35
2022-10-23T03:08:26.629Z,15.60
2022-10-23T03:12:42.401Z,12.55
2022-10-23T03:16:56.488Z,13.38
2022-10-23T03:21:12.256Z,10.77
2022-10-23T03:25:26.009Z,11.23
2022-10-23T03:29:41.385Z,11.55
2022-10-23T03:33:55.117Z,10.20
2022-10-23T03:38:09.061Z,9.18
2022-10-23T03:42:22.749Z,12.43
2022-10-23T03:46:37.826Z,11.70
2022-10-23T03:50:51.728Z,9.43
2022-10-23T03:55:06.495Z,9.00
2022-10-23T03:59:20.292Z,9.45
2022-10-23T04:03:36.405Z,9.90
2022-10-23T04:07:50.399Z,11.30
2022-10-23T04:12:04.236Z,7.50
2022-10-23T04:16:18.466Z,8.40
2022-10-23T04:20:33.978Z,11.27
2022-10-23T04:24:49.411Z,11.80
2022-10-23T04:29:05.701Z,11.65
2022-10-23T04:33:19.403Z,12.03
2022-10-23T04:37:37.475Z,9.00
2022-10-23T04:41:52.911Z,8.32
2022-10-23T04:46:07.800Z,11.10
2022-10-23T04:50:21.989Z,10.57
2022-10-23T04:54:55.494Z,11.82
2022-10-23T04:59:09.404Z,9.30
2022-10-23T05:03:26.351Z,10.55
2022-10-23T05:07:40.909Z,8.18
2022-10-23T05:12:10.105Z,9.27
2022-10-23T05:16:33.524Z,8.70
2022-10-23T05:20:48.694Z,12.60
2022-10-23T05:25:02.703Z,9.77
2022-10-23T05:29:23.312Z,8.17
2022-10-23T05:33:41.020Z,6.07
2022-10-23T05:37:57.191Z,10.10
2022-10-23T05:42:12.472Z,7.20
2022-10-23T05:46:28.991Z,6.88
2022-10-23T05:51:04.489Z,11.10
2022-10-23T05:55:28.430Z,7.50
2022-10-23T06:00:06.287Z,8.13
2022-10-23T06:04:30.261Z,10.80
2022-10-23T06:09:04.150Z,8.50
2022-10-23T06:13:22.810Z,8.27
2022-10-23T06:17:36.508Z,8.27
2022-10-23T06:21:52.128Z,7.55
2022-10-23T06:26:09.652Z,9.27
2022-10-23T06:30:40.709Z,14.23
2022-10-23T06:34:54.597Z,9.90
2022-10-23T06:39:10.379Z,9.60
2022-10-23T06:43:53.400Z,9.67
2022-10-23T06:48:25.828Z,8.32
2022-10-23T06:52:47.850Z,8.45
2022-10-23T06:57:05.704Z,7.57
2022-10-23T07:01:30.316Z,6.47
2022-10-23T07:05:45.105Z,7.15
2022-10-23T07:09:59.711Z,9.70
2022-10-23T07:14:36.314Z,7.80
2022-10-23T07:18:58.691Z,5.72
2022-10-23T07:23:16.277Z,8.32
2022-10-23T07:27:31.822Z,8.73
2022-10-23T07:31:50.412Z,8.43
2022-10-23T07:36:21.992Z,9.20
2022-10-23T07:40:36.111Z,6.70
2022-10-23T07:44:50.766Z,7.13
2022-10-23T07:49:05.969Z,7.03
2022-10-23T07:53:21.740Z,6.90
2022-10-23T07:57:40.149Z,8.45
2022-10-23T08:02:15.487Z,7.70
2022-10-23T08:06:31.581Z,6.60
2022-10-23T08:10:47.604Z,6.03
2022-10-23T08:15:07.701Z,6.85
2022-10-23T08:19:37.122Z,6.65
2022-10-23T08:23:55.087Z,8.57
2022-10-23T08:28:09.448Z,7.95
2022-10-23T08:32:31.359Z,9.00
2022-10-23T08:36:46.684Z,6.17
2022-10-23T08:41:02.831Z,7.13
2022-10-23T08:45:43.569Z,7.15
2022-10-23T08:50:15.737Z,9.63
2022-10-23T08:54:35.123Z,7.23
2022-10-23T08:58:54.230Z,9.98
2022-10-23T09:03:07.944Z,6.38
2022-10-23T09:07:29.580Z,7.50
2022-10-23T09:11:50.240Z,7.18
2022-10-23T09:16:15.591Z,6.85
2022-10-23T09:20:34.213Z,6.43
2022-10-23T09:24:52.976Z,5.78
2022-10-23T09:29:22.133Z,6.72
2022-10-23T09:33:37.687Z,6.20
2022-10-23T09:37:53.274Z,7.43
2022-10-23T09:42:22.942Z,6.28
2022-10-23T09:46:41.138Z,7.53
2022-10-23T09:50:58.959Z,6.40
2022-10-23T09:55:21.465Z,7.45
2022-10-23T09:59:35.915Z,7.18
2022-10-23T10:03:50.631Z,7.73
2022-10-23T10:08:16.474Z,7.20
2022-10-23T10:12:44.056Z,6.93
2022-10-23T10:17:06.699Z,9.23
2022-10-23T10:21:26.143Z,5.87
2022-10-23T10:25:52.032Z,8.05
2022-10-23T10:30:13.839Z,6.75
2022-10-23T10:34:33.852Z,5.83
2022-10-23T10:38:51.863Z,9.30
2022-10-23T10:43:21.435Z,7.03
2022-10-23T10:47:47.549Z,6.63
2022-10-23T10:52:14.360Z,7.47
2022-10-23T10:56:31.323Z,6.43
2022-10-23T11:00:50.899Z,7.20
2022-10-23T11:05:14.921Z,6.60
2022-10-23T11:09:31.138Z,6.55
2022-10-23T11:13:46.669Z,7.07
2022-10-23T11:18:10.856Z,6.03
2022-10-23T11:22:34.528Z,7.00
2022-10-23T11:27:08.314Z,7.13
2022-10-23T11:31:32.151Z,6.40
2022-10-23T11:35:58.428Z,5.63
2022-10-23T11:40:23.576Z,6.30
2022-10-23T11:44:44.093Z,6.13
2022-10-23T11:49:02.532Z,4.63
2022-10-23T11:53:28.851Z,4.95
2022-10-23T11:57:42.716Z,4.53
2022-10-23T12:01:59.427Z,5.20
2022-10-23T12:06:22.896Z,4.70
2022-10-23T12:10:46.913Z,5.93
2022-10-23T12:15:20.572Z,4.90
2022-10-23T12:19:48.754Z,6.65
2022-10-23T12:24:36.496Z,7.78
2022-10-23T12:29:00.542Z,5.95
2022-10-23T12:33:26.126Z,4.80
2022-10-23T12:37:57.241Z,5.18
2022-10-23T12:42:19.771Z,6.03
2022-10-23T12:46:37.570Z,5.30
2022-10-23T12:50:54.918Z,7.68
2022-10-23T12:55:14.707Z,5.20
2022-10-23T12:59:34.398Z,4.93
2022-10-23T13:03:50.258Z,6.80
2022-10-23T13:08:04.777Z,9.63
2022-10-23T13:12:33.769Z,6.00
2022-10-23T13:17:00.488Z,4.70
2022-10-23T13:21:21.095Z,7.57
2022-10-23T13:25:36.453Z,7.93
2022-10-23T13:29:50.151Z,5.37
2022-10-23T13:34:24.702Z,5.07
2022-10-23T13:38:43.024Z,5.38
2022-10-23T13:42:58.898Z,6.67
2022-10-23T13:47:17.040Z,5.53
2022-10-23T13:51:34.544Z,7.18
2022-10-23T13:55:56.368Z,7.63
2022-10-23T14:00:13.318Z,6.43
2022-10-23T14:04:26.984Z,8.05
2022-10-23T14:08:40.784Z,5.75
2022-10-23T14:13:12.737Z,8.53
2022-10-23T14:17:35.187Z,6.13
2022-10-23T14:21:50.035Z,9.57
2022-10-23T14:26:10.763Z,6.07
2022-10-23T14:30:35.276Z,5.95
2022-10-23T14:34:55.754Z,6.20
2022-10-23T14:39:12.528Z,6.20
2022-10-23T14:43:26.993Z,7.50
2022-10-23T14:47:56.104Z,8.02
2022-10-23T14:52:16.546Z,9.30
2022-10-23T14:56:53.276Z,7.37
2022-10-23T15:01:10.695Z,7.63
2022-10-23T15:05:25.982Z,6.78
2022-10-23T15:09:45.480Z,6.80
2022-10-23T15:14:02.265Z,7.55
2022-10-23T15:18:15.899Z,7.60
2022-10-23T15:22:33.661Z,7.50
2022-10-23T15:26:51.693Z,7.20
2022-10-23T15:31:05.817Z,7.70
2022-10-23T15:35:19.731Z,7.80
2022-10-23T15:39:38.086Z,6.53
2022-10-23T15:43:52.031Z,7.07
2022-10-23T15:48:18.781Z,6.72
2022-10-23T15:52:47.950Z,6.20
2022-10-23T15:57:05.690Z,7.30
2022-10-23T16:01:24.856Z,6.40
2022-10-23T16:05:38.814Z,5.95
2022-10-23T16:09:52.755Z,5.67
2022-10-23T16:14:15.921Z,6.93
2022-10-23T16:18:32.028Z,8.45
2022-10-23T16:22:52.399Z,6.77
2022-10-23T16:27:06.433Z,7.95
2022-10-23T16:31:25.172Z,6.60
2022-10-23T16:35:48.751Z,7.63
2022-10-23T16:40:10.658Z,6.05
2022-10-23T16:44:45.609Z,10.00
2022-10-23T16:49:04.184Z,7.22
2022-10-23T16:53:17.850Z,7.10
2022-10-23T16:57:40.389Z,6.18
2022-10-23T17:01:54.383Z,8.10
2022-10-23T17:06:21.925Z,7.47
2022-10-23T17:10:36.876Z,8.63
2022-10-23T17:14:53.288Z,7.00
2022-10-23T17:19:20.842Z,9.03
2022-10-23T17:23:42.276Z,13.02
2022-10-23T17:27:57.484Z,7.22
2022-10-23T17:32:14.442Z,9.07
2022-10-23T17:36:39.744Z,7.17
2022-10-23T17:41:00.457Z,9.02
2022-10-23T17:45:20.361Z,8.38
2022-10-23T17:49:38.765Z,9.60
2022-10-23T17:54:11.268Z,6.90
2022-10-23T17:58:44.044Z,7.13
2022-10-23T18:03:13.685Z,8.10
2022-10-23T18:07:35.805Z,6.70
2022-10-23T18:12:00.760Z,9.30
2022-10-23T18:16:24.756Z,7.68
2022-10-23T18:20:42.728Z,9.27
2022-10-23T18:24:57.270Z,7.70
2022-10-23T18:29:15.566Z,8.95
2022-10-23T18:33:47.120Z,7.70
2022-10-23T18:38:12.877Z,9.18
2022-10-23T18:42:26.796Z,8.30
2022-10-23T18:46:43.506Z,8.13
2022-10-23T18:51:03.163Z,9.98
2022-10-23T18:55:26.608Z,8.98
2022-10-23T18:59:51.439Z,7.28
2022-10-23T19:04:10.444Z,7.93
2022-10-23T19:08:32.263Z,7.50
2022-10-23T19:12:46.235Z,7.60
2022-10-23T19:17:10.733Z,12.37
2022-10-23T19:21:31.717Z,6.50
2022-10-23T19:25:52.712Z,7.68
2022-10-23T19:30:14.416Z,7.63
2022-10-23T19:34:32.506Z,7.93
2022-10-23T19:39:18.648Z,10.93
2022-10-23T19:43:45.535Z,8.35
2022-10-23T19:47:59.549Z,7.27
2022-10-23T19:52:16.618Z,7.65
2022-10-23T19:56:32.969Z,7.80
2022-10-23T20:00:51.005Z,8.10
2022-10-23T20:05:06.992Z,8.27
2022-10-23T20:09:29.668Z,6.25
2022-10-23T20:13:45.130Z,7.43
2022-10-23T20:18:01.476Z,6.47
2022-10-23T20:22:15.355Z,6.20
2022-10-23T20:26:55.357Z,7.53
2022-10-23T20:31:18.701Z,8.70
2022-10-23T20:40:17.410Z,6.63
2022-10-23T20:44:31.290Z,6.97
2022-10-23T20:48:46.158Z,7.90
2022-10-23T20:53:01.230Z,10.38
2022-10-23T20:57:19.255Z,6.33
2022-10-23T21:01:35.520Z,5.97
2022-10-23T21:05:55.170Z,5.68
2022-10-23T21:10:12.967Z,7.18
2022-10-23T21:14:27.248Z,6.80
2022-10-23T21:18:46.670Z,7.10
2022-10-23T21:23:10.682Z,6.97
2022-10-23T21:27:34.244Z,7.90
2022-10-23T21:31:57.909Z,7.70
2022-10-23T21:36:19.831Z,8.15
2022-10-23T21:40:33.570Z,10.07
2022-10-23T21:44:51.868Z,8.90
2022-10-23T21:49:31.930Z,7.68
2022-10-23T21:53:54.568Z,8.23
2022-10-23T21:58:11.510Z,10.23
2022-10-23T22:02:35.977Z,10.80
2022-10-23T22:06:54.423Z,7.82
2022-10-23T22:11:12.616Z,7.73
2022-10-23T22:15:26.523Z,8.43
2022-10-23T22:19:58.435Z,8.18
2022-10-23T22:24:17.528Z,7.70
2022-10-23T22:28:39.144Z,8.65
2022-10-23T22:32:52.926Z,5.82
2022-10-23T22:37:08.351Z,7.97
2022-10-23T22:41:22.556Z,7.20
2022-10-23T22:45:36.372Z,9.10
2022-10-23T22:49:50.070Z,7.90
2022-10-23T22:54:05.646Z,8.60
2022-10-23T22:58:19.398Z,9.10
2022-10-23T23:02:33.154Z,11.98
2022-10-23T23:06:47.307Z,9.57
2022-10-23T23:11:02.780Z,8.68
2022-10-23T23:15:16.645Z,7.18
2022-10-23T23:19:30.380Z,7.70
2022-10-23T23:23:44.093Z,7.13
2022-10-23T23:27:59.750Z,8.02
2022-10-23T23:32:13.547Z,8.68
2022-10-23T23:36:28.865Z,8.57
2022-10-23T23:40:50.835Z,8.32
2022-10-23T23:45:14.410Z,7.30
2022-10-23T23:49:28.517Z,9.10
2022-10-23T23:53:42.273Z,10.50
2022-10-23T23:57:55.986Z,6.72
